createdAt,value
2022-08-02T00:00:13.298Z,4.10
2022-08-02T00:02:40.961Z,4.70
2022-08-02T00:05:08.406Z,4.60
2022-08-02T00:07:40.871Z,4.45
2022-08-02T00:10:10.037Z,4.10
2022-08-02T00:12:37.345Z,4.68
2022-08-02T00:15:06.785Z,4.35
2022-08-02T00:17:33.728Z,4.30
2022-08-02T00:20:00.705Z,4.40
2022-08-02T00:22:27.676Z,4.47
2022-08-02T00:24:55.439Z,4.95
2022-08-02T00:27:22.360Z,4.80
2022-08-02T00:29:52.877Z,4.55
2022-08-02T00:32:20.674Z,4.57
2022-08-02T00:34:47.639Z,4.53
2022-08-02T00:37:14.622Z,4.53
2022-08-02T00:39:42.711Z,4.12
2022-08-02T00:42:10.558Z,4.32
2022-08-02T00:44:38.068Z,4.20
2022-08-02T00:47:05.503Z,4.00
2022-08-02T00:49:32.932Z,4.00
2022-08-02T00:52:00.810Z,4.30
2022-08-02T00:54:28.132Z,4.30
2022-08-02T00:56:55.059Z,4.72
2022-08-02T00:59:22.013Z,4.57
2022-08-02T01:01:56.558Z,4.43
2022-08-02T01:04:31.296Z,4.80
2022-08-02T01:07:00.740Z,4.20
2022-08-02T01:09:28.011Z,4.37
2022-08-02T01:11:54.992Z,4.57
2022-08-02T01:14:24.566Z,4.30
2022-08-02T01:17:06.328Z,4.35
2022-08-02T01:19:55.486Z,4.47
2022-08-02T01:23:01.468Z,4.55
2022-08-02T01:25:39.095Z,4.40
2022-08-02T01:28:30.501Z,4.65
2022-08-02T01:31:28.108Z,4.15
2022-08-02T01:34:04.134Z,4.35
2022-08-02T01:36:36.325Z,4.57
2022-08-02T01:39:05.523Z,4.50
2022-08-02T01:41:32.952Z,4.50
2022-08-02T01:44:01.123Z,4.50
2022-08-02T01:46:29.586Z,4.70
2022-08-02T01:48:58.283Z,4.53
2022-08-02T01:51:44.092Z,4.28
2022-08-02T01:54:13.293Z,4.93
2022-08-02T01:56:41.552Z,4.20
2022-08-02T01:59:10.044Z,4.70
2022-08-02T02:01:37.427Z,4.60
2022-08-02T02:04:05.316Z,5.07
2022-08-02T02:06:33.581Z,4.70
2022-08-02T02:09:00.655Z,4.75
2022-08-02T02:12:11.502Z,4.78
2022-08-02T02:14:15.618Z,4.75
2022-08-02T02:16:45.182Z,4.70
2022-08-02T02:19:13.288Z,4.60
2022-08-02T02:21:48.142Z,4.90
2022-08-02T02:24:15.061Z,4.62
2022-08-02T02:26:50.712Z,4.70
2022-08-02T02:29:21.017Z,4.37
2022-08-02T02:31:48.893Z,4.72
2022-08-02T02:34:18.578Z,4.62
2022-08-02T02:36:51.036Z,4.70
2022-08-02T02:39:21.014Z,4.47
2022-08-02T02:41:49.252Z,4.55
2022-08-02T02:44:20.077Z,4.80
2022-08-02T02:46:49.308Z,4.60
2022-08-02T02:49:16.687Z,4.55
2022-08-02T02:51:44.863Z,4.80
2022-08-02T02:54:33.118Z,5.10
2022-08-02T02:57:01.215Z,5.20
2022-08-02T02:59:28.764Z,4.90
2022-08-02T03:01:58.141Z,5.15
2022-08-02T03:04:27.809Z,4.93
2022-08-02T03:07:14.755Z,5.30
2022-08-02T03:09:41.723Z,5.00
2022-08-02T03:12:09.958Z,4.60
2022-08-02T03:14:42.388Z,5.05
2022-08-02T03:17:09.363Z,4.40
2022-08-02T03:19:36.349Z,4.70
2022-08-02T03:22:03.276Z,4.53
2022-08-02T03:24:30.223Z,5.03
2022-08-02T03:26:57.190Z,4.68
2022-08-02T03:29:24.108Z,4.97
2022-08-02T03:31:51.402Z,5.03
2022-08-02T03:34:18.419Z,5.00
2022-08-02T03:36:49.003Z,4.47
2022-08-02T03:39:16.298Z,5.12
2022-08-02T03:41:43.661Z,4.85
2022-08-02T03:44:11.637Z,5.20
2022-08-02T03:46:39.808Z,5.00
2022-08-02T03:49:08.565Z,4.97
2022-08-02T03:51:36.354Z,4.50
2022-08-02T03:54:04.111Z,4.70
2022-08-02T03:56:31.312Z,4.80
2022-08-02T03:59:11.823Z,4.65
2022-08-02T04:01:38.845Z,4.12
2022-08-02T04:04:06.830Z,4.35
2022-08-02T04:06:33.867Z,4.18
2022-08-02T04:09:01.647Z,4.07
2022-08-02T04:11:31.607Z,4.18
2022-08-02T04:14:05.238Z,4.30
2022-08-02T04:16:40.484Z,3.78
2022-08-02T04:19:09.722Z,3.85
2022-08-02T04:21:50.451Z,4.00
2022-08-02T04:24:25.722Z,3.58
2022-08-02T04:27:06.462Z,4.00
2022-08-02T04:29:46.977Z,3.55
2022-08-02T04:32:14.786Z,3.72
2022-08-02T04:34:47.445Z,3.75
2022-08-02T04:37:21.881Z,3.85
2022-08-02T04:39:48.814Z,3.55
2022-08-02T04:42:23.499Z,3.60
2022-08-02T04:44:51.296Z,3.42
2022-08-02T04:47:34.510Z,3.40
2022-08-02T04:50:05.817Z,3.72
2022-08-02T04:52:32.758Z,3.70
2022-08-02T04:55:00.034Z,3.60
2022-08-02T04:57:52.388Z,3.53
2022-08-02T05:00:20.468Z,3.90
2022-08-02T05:02:48.067Z,3.60
2022-08-02T05:05:15.530Z,3.70
2022-08-02T05:07:42.651Z,3.08
2022-08-02T05:10:09.694Z,3.25
2022-08-02T05:12:38.795Z,3.50
2022-08-02T05:15:06.635Z,3.50
2022-08-02T05:17:36.192Z,3.40
2022-08-02T05:20:03.916Z,3.40
2022-08-02T05:22:30.846Z,3.35
2022-08-02T05:24:57.774Z,3.45
2022-08-02T05:27:24.693Z,3.50
2022-08-02T05:29:53.594Z,3.67
2022-08-02T05:32:25.194Z,3.22
2022-08-02T05:34:53.495Z,3.53
2022-08-02T05:37:20.431Z,3.50
2022-08-02T05:39:55.149Z,3.40
2022-08-02T05:42:23.288Z,3.40
2022-08-02T05:44:50.304Z,3.10
2022-08-02T05:47:17.509Z,3.05
2022-08-02T05:49:44.486Z,3.30
2022-08-02T05:52:17.291Z,3.53
2022-08-02T05:55:07.385Z,3.17
2022-08-02T05:57:49.183Z,3.83
2022-08-02T06:00:16.877Z,3.35
2022-08-02T06:02:43.875Z,3.08
2022-08-02T06:05:17.286Z,3.47
2022-08-02T06:07:46.047Z,3.35
2022-08-02T06:10:14.646Z,3.30
2022-08-02T06:12:51.150Z,3.72
2022-08-02T06:15:19.596Z,3.37
2022-08-02T06:17:47.969Z,3.60
2022-08-02T06:20:15.871Z,3.37
2022-08-02T06:22:44.963Z,3.78
2022-08-02T06:25:49.678Z,3.37
2022-08-02T06:28:04.940Z,3.40
2022-08-02T06:30:38.300Z,3.60
2022-08-02T06:33:05.262Z,3.60
2022-08-02T06:35:44.544Z,3.60
2022-08-02T06:38:15.720Z,3.95
2022-08-02T06:40:49.356Z,3.60
2022-08-02T06:43:26.790Z,3.60
2022-08-02T06:45:53.711Z,3.30
2022-08-02T06:48:20.759Z,3.58
2022-08-02T06:50:47.824Z,3.87
2022-08-02T06:53:14.847Z,3.10
2022-08-02T06:55:44.110Z,3.62
2022-08-02T06:58:12.640Z,3.83
2022-08-02T07:00:39.878Z,3.45
2022-08-02T07:03:07.045Z,3.53
2022-08-02T07:05:34.966Z,3.72
2022-08-02T07:08:03.132Z,3.45
2022-08-02T07:10:30.338Z,3.58
2022-08-02T07:12:59.765Z,3.40
2022-08-02T07:15:27.286Z,3.30
2022-08-02T07:17:54.244Z,3.20
2022-08-02T07:20:21.183Z,3.47
2022-08-02T07:22:48.198Z,2.90
2022-08-02T07:25:15.281Z,3.40
2022-08-02T07:27:42.297Z,3.42
2022-08-02T07:30:09.859Z,3.60
2022-08-02T07:32:36.788Z,3.45
2022-08-02T07:35:06.946Z,3.42
2022-08-02T07:37:54.564Z,3.87
2022-08-02T07:40:23.671Z,3.40
2022-08-02T07:42:56.411Z,3.50
2022-08-02T07:45:27.131Z,3.50
2022-08-02T07:47:54.058Z,3.83
2022-08-02T07:50:21.721Z,3.53
2022-08-02T07:52:49.810Z,3.50
2022-08-02T07:55:24.476Z,3.33
2022-08-02T07:58:06.016Z,3.45
2022-08-02T08:00:38.274Z,3.28
2022-08-02T08:03:05.200Z,3.00
2022-08-02T08:05:32.132Z,2.97
2022-08-02T08:07:59.047Z,3.20
2022-08-02T08:10:26.066Z,3.20
2022-08-02T08:12:53.025Z,3.05
2022-08-02T08:15:20.117Z,3.28
2022-08-02T08:17:47.090Z,3.08
2022-08-02T08:20:15.925Z,3.17
2022-08-02T08:22:43.036Z,2.75
2022-08-02T08:25:10.468Z,2.30
2022-08-02T08:27:37.980Z,2.53
2022-08-02T08:30:05.241Z,2.70
2022-08-02T08:32:32.177Z,3.03
2022-08-02T08:34:59.602Z,3.15
2022-08-02T08:37:27.543Z,3.35
2022-08-02T08:39:58.403Z,2.97
2022-08-02T08:42:29.597Z,2.90
2022-08-02T08:44:57.502Z,3.08
2022-08-02T08:47:26.234Z,3.28
2022-08-02T08:50:04.126Z,2.67
2022-08-02T08:52:33.752Z,2.83
2022-08-02T08:55:00.856Z,3.25
2022-08-02T08:57:29.774Z,2.85
2022-08-02T08:59:57.073Z,3.12
2022-08-02T09:02:28.067Z,3.20
2022-08-02T09:04:55.591Z,3.40
2022-08-02T09:07:23.677Z,3.62
2022-08-02T09:09:50.622Z,3.03
2022-08-02T09:12:19.788Z,3.10
2022-08-02T09:14:50.023Z,3.00
2022-08-02T09:17:18.366Z,3.30
2022-08-02T09:19:45.979Z,3.15
2022-08-02T09:22:15.080Z,2.87
2022-08-02T09:24:44.880Z,3.25
2022-08-02T09:27:14.146Z,3.42
2022-08-02T09:30:05.244Z,3.20
2022-08-02T09:32:33.859Z,3.40
2022-08-02T09:35:00.825Z,3.58
2022-08-02T09:37:29.804Z,3.70
2022-08-02T09:39:59.864Z,3.58
2022-08-02T09:42:30.807Z,3.87
2022-08-02T09:45:02.252Z,3.97
2022-08-02T09:47:31.052Z,3.00
2022-08-02T09:49:59.028Z,3.72
2022-08-02T09:52:43.316Z,3.17
2022-08-02T09:55:11.693Z,3.40
2022-08-02T09:57:38.796Z,3.42
2022-08-02T10:00:14.271Z,3.60
2022-08-02T10:03:11.189Z,3.90
2022-08-02T10:05:55.484Z,3.65
2022-08-02T10:08:26.019Z,3.40
2022-08-02T10:11:00.623Z,3.25
2022-08-02T10:13:32.186Z,2.95
2022-08-02T10:15:59.312Z,3.00
2022-08-02T10:18:38.653Z,3.80
2022-08-02T10:21:08.281Z,3.80
2022-08-02T10:23:36.961Z,4.35
2022-08-02T10:26:05.028Z,3.70
2022-08-02T10:28:32.116Z,4.10
2022-08-02T10:31:01.942Z,4.03
2022-08-02T10:33:33.370Z,4.20
2022-08-02T10:36:04.445Z,4.18
2022-08-02T10:38:35.818Z,4.20
2022-08-02T10:41:02.898Z,3.87
2022-08-02T10:43:32.554Z,3.70
2022-08-02T10:46:22.332Z,4.10
2022-08-02T10:49:37.453Z,3.78
2022-08-02T10:52:02.183Z,3.60
2022-08-02T10:54:39.792Z,3.58
2022-08-02T10:57:21.891Z,3.67
2022-08-02T10:59:51.061Z,3.20
2022-08-02T11:02:42.441Z,3.22
2022-08-02T11:05:11.603Z,3.50
2022-08-02T11:07:49.908Z,3.50
2022-08-02T11:10:36.153Z,3.37
2022-08-02T11:13:15.394Z,3.17
2022-08-02T11:15:57.090Z,2.85
2022-08-02T11:18:49.750Z,2.15
2022-08-02T11:21:24.875Z,3.00
2022-08-02T11:23:53.060Z,3.20
2022-08-02T11:26:32.018Z,3.20
2022-08-02T11:29:03.121Z,3.10
2022-08-02T11:31:35.516Z,3.10
2022-08-02T11:34:05.381Z,3.20
2022-08-02T11:36:44.956Z,3.40
2022-08-02T11:39:15.789Z,3.10
2022-08-02T11:41:46.773Z,3.03
2022-08-02T11:44:14.483Z,2.87
2022-08-02T11:46:41.495Z,2.83
2022-08-02T11:49:18.925Z,2.50
2022-08-02T11:51:54.296Z,2.40
2022-08-02T11:54:30.222Z,2.35
2022-08-02T11:57:19.341Z,2.60
2022-08-02T11:59:56.939Z,2.80
2022-08-02T12:02:28.887Z,2.92
2022-08-02T12:05:04.648Z,3.00
2022-08-02T12:07:45.822Z,2.35
2022-08-02T12:10:18.765Z,2.50
2022-08-02T12:12:56.957Z,2.08
2022-08-02T12:15:34.534Z,2.40
2022-08-02T12:18:20.184Z,2.40
2022-08-02T12:20:47.135Z,2.40
2022-08-02T12:23:14.219Z,2.30
2022-08-02T12:25:41.389Z,2.30
2022-08-02T12:28:21.483Z,2.70
2022-08-02T12:30:53.465Z,2.40
2022-08-02T12:33:22.349Z,2.40
2022-08-02T12:35:49.809Z,2.40
2022-08-02T12:38:17.030Z,2.25
2022-08-02T12:40:44.085Z,2.30
2022-08-02T12:43:19.081Z,2.30
2022-08-02T12:45:49.283Z,2.12
2022-08-02T12:48:19.137Z,1.75
2022-08-02T12:50:46.104Z,2.30
2022-08-02T12:53:15.897Z,1.80
2022-08-02T12:56:11.924Z,1.70
2022-08-02T12:58:52.271Z,1.90
2022-08-02T13:01:23.775Z,2.17
2022-08-02T13:04:09.754Z,2.08
2022-08-02T13:06:45.737Z,1.80
2022-08-02T13:09:15.997Z,1.90
2022-08-02T13:11:43.939Z,2.00
2022-08-02T13:14:12.880Z,1.67
2022-08-02T13:16:41.478Z,1.87
2022-08-02T13:19:08.415Z,1.67
2022-08-02T13:21:41.678Z,1.70
2022-08-02T13:27:09.744Z,1.98
2022-08-02T13:29:38.192Z,1.85
2022-08-02T13:32:05.385Z,1.70
2022-08-02T13:34:35.128Z,1.92
2022-08-02T13:37:02.738Z,1.60
2022-08-02T13:39:29.927Z,1.80
2022-08-02T13:41:56.850Z,1.40
2022-08-02T13:44:23.809Z,1.73
2022-08-02T13:46:50.839Z,1.50
2022-08-02T13:49:19.766Z,1.58
2022-08-02T13:51:47.781Z,1.50
2022-08-02T13:54:15.645Z,1.40
2022-08-02T13:56:42.709Z,1.55
2022-08-02T13:59:54.281Z,1.30
2022-08-02T14:01:58.801Z,1.40
2022-08-02T14:04:26.120Z,1.40
2022-08-02T14:06:53.127Z,1.40
2022-08-02T14:09:20.472Z,1.42
2022-08-02T14:11:47.506Z,1.50
2022-08-02T14:14:16.964Z,1.45
2022-08-02T14:16:45.594Z,1.42
2022-08-02T14:19:16.700Z,1.40
2022-08-02T14:21:46.772Z,1.80
2022-08-02T14:24:19.652Z,1.77
2022-08-02T14:26:47.621Z,1.50
2022-08-02T14:29:15.541Z,1.52
2022-08-02T14:31:44.626Z,1.73
2022-08-02T14:34:13.813Z,1.80
2022-08-02T14:36:40.786Z,2.42
2022-08-02T14:39:07.901Z,1.60
2022-08-02T14:41:59.423Z,1.83
2022-08-02T14:44:23.887Z,1.50
2022-08-02T14:46:51.310Z,1.55
2022-08-02T14:49:26.004Z,1.80
2022-08-02T14:51:56.756Z,1.67
2022-08-02T14:54:30.040Z,1.30
2022-08-02T14:57:02.574Z,1.40
2022-08-02T14:59:30.078Z,1.50
2022-08-02T15:01:57.460Z,1.60
2022-08-02T15:04:24.591Z,1.35
2022-08-02T15:06:52.920Z,1.50
2022-08-02T15:09:20.536Z,1.50
2022-08-02T15:11:49.150Z,1.42
2022-08-02T15:14:22.136Z,1.33
2022-08-02T15:16:57.073Z,1.58
2022-08-02T15:19:26.451Z,1.52
2022-08-02T15:22:13.699Z,1.50
2022-08-02T15:24:44.943Z,1.50
2022-08-02T15:27:14.080Z,1.30
2022-08-02T15:29:42.337Z,1.40
2022-08-02T15:32:09.482Z,1.30
2022-08-02T15:34:36.884Z,1.70
2022-08-02T15:37:04.097Z,1.12
2022-08-02T15:39:31.095Z,1.30
2022-08-02T15:41:58.079Z,1.30
2022-08-02T15:44:25.254Z,1.65
2022-08-02T15:46:53.503Z,1.40
2022-08-02T15:49:24.025Z,1.40
2022-08-02T15:51:55.029Z,1.45
2022-08-02T15:54:21.953Z,1.30
2022-08-02T15:56:49.199Z,1.40
2022-08-02T15:59:16.264Z,1.70
2022-08-02T16:01:47.064Z,1.50
2022-08-02T16:04:15.477Z,1.30
2022-08-02T16:06:42.722Z,1.40
2022-08-02T16:09:09.667Z,1.55
2022-08-02T16:11:36.618Z,1.50
2022-08-02T16:14:04.255Z,1.58
2022-08-02T16:16:33.353Z,1.50
2022-08-02T16:19:47.734Z,1.50
2022-08-02T16:21:48.916Z,1.48
2022-08-02T16:24:15.882Z,1.50
2022-08-02T16:26:42.965Z,1.62
2022-08-02T16:29:10.015Z,1.50
2022-08-02T16:31:41.916Z,1.30
2022-08-02T16:34:09.639Z,1.50
2022-08-02T16:36:36.580Z,1.35
2022-08-02T16:39:05.142Z,1.45
2022-08-02T16:41:51.673Z,1.50
2022-08-02T16:44:29.643Z,1.30
2022-08-02T16:47:01.426Z,1.48
2022-08-02T16:50:04.259Z,1.80
2022-08-02T16:52:16.715Z,1.70
2022-08-02T16:54:46.376Z,1.50
2022-08-02T16:57:17.538Z,1.30
2022-08-02T16:59:58.108Z,1.48
2022-08-02T17:02:26.605Z,1.30
2022-08-02T17:04:54.742Z,1.52
2022-08-02T17:08:07.878Z,1.25
2022-08-02T17:10:09.418Z,1.45
2022-08-02T17:12:37.831Z,1.50
2022-08-02T17:15:47.016Z,1.50
2022-08-02T17:17:53.728Z,1.27
2022-08-02T17:20:21.550Z,1.30
2022-08-02T17:22:51.294Z,1.60
2022-08-02T17:25:18.246Z,1.33
2022-08-02T17:27:45.994Z,1.33
2022-08-02T17:30:13.697Z,1.42
2022-08-02T17:32:45.665Z,1.42
2022-08-02T17:35:12.870Z,1.55
2022-08-02T17:37:43.033Z,1.62
2022-08-02T17:40:21.822Z,1.30
2022-08-02T17:42:50.863Z,1.60
2022-08-02T17:45:25.524Z,1.60
2022-08-02T17:48:05.100Z,1.50
2022-08-02T17:50:34.076Z,1.33
2022-08-02T17:53:01.668Z,1.65
2022-08-02T17:55:30.968Z,1.60
2022-08-02T17:57:59.368Z,1.30
2022-08-02T18:00:37.326Z,1.60
2022-08-02T18:03:09.877Z,1.50
2022-08-02T18:05:40.207Z,1.30
2022-08-02T18:08:22.935Z,1.50
2022-08-02T18:10:50.859Z,1.42
2022-08-02T18:13:17.783Z,1.37
2022-08-02T18:15:45.502Z,1.40
2022-08-02T18:18:14.535Z,1.33
2022-08-02T18:20:41.945Z,1.30
2022-08-02T18:23:10.966Z,1.50
2022-08-02T18:25:46.050Z,1.40
2022-08-02T18:28:15.256Z,1.35
2022-08-02T18:30:43.141Z,1.65
2022-08-02T18:33:58.318Z,1.40
2022-08-02T18:35:57.330Z,1.40
2022-08-02T18:38:27.021Z,1.45
2022-08-02T18:40:55.288Z,1.40
2022-08-02T18:43:25.704Z,1.40
2022-08-02T18:46:05.801Z,1.35
2022-08-02T18:48:46.922Z,1.55
2022-08-02T18:51:15.164Z,1.42
2022-08-02T18:53:42.984Z,1.45
2022-08-02T18:56:19.185Z,1.27
2022-08-02T18:58:48.394Z,1.50
2022-08-02T19:01:31.396Z,1.62
2022-08-02T19:04:00.658Z,1.80
2022-08-02T19:06:28.923Z,1.62
2022-08-02T19:11:48.420Z,1.40
2022-08-02T19:14:27.177Z,1.50
2022-08-02T19:16:59.708Z,1.70
2022-08-02T19:19:29.024Z,1.80
2022-08-02T19:22:17.910Z,1.73
2022-08-02T19:24:45.948Z,1.90
2022-08-02T19:27:14.721Z,1.70
2022-08-02T19:29:49.002Z,1.60
2022-08-02T19:32:42.183Z,1.70
2022-08-02T19:35:19.855Z,1.58
2022-08-02T19:37:55.816Z,1.50
2022-08-02T19:40:24.405Z,1.62
2022-08-02T19:44:21.082Z,1.80
2022-08-02T19:45:50.169Z,2.03
2022-08-02T19:48:24.567Z,1.30
2022-08-02T19:50:56.724Z,1.50
2022-08-02T19:53:28.840Z,1.90
2022-08-02T19:56:00.158Z,1.60
2022-08-02T19:58:28.886Z,1.65
2022-08-02T20:00:55.819Z,1.55
2022-08-02T20:03:52.211Z,1.70
2022-08-02T20:08:39.556Z,1.62
2022-08-02T20:11:07.167Z,1.50
2022-08-02T20:13:46.986Z,1.70
2022-08-02T20:16:27.315Z,1.40
2022-08-02T20:18:56.538Z,1.65
2022-08-02T20:21:34.431Z,1.65
2022-08-02T20:24:07.833Z,1.55
2022-08-02T20:26:35.708Z,1.55
2022-08-02T20:29:05.205Z,1.80
2022-08-02T20:31:32.289Z,1.55
2022-08-02T20:33:59.250Z,1.70
2022-08-02T20:36:27.251Z,1.50
2022-08-02T20:38:54.899Z,1.60
2022-08-02T20:41:23.224Z,1.60
2022-08-02T20:43:50.569Z,1.70
2022-08-02T20:46:17.530Z,1.73
2022-08-02T20:48:45.014Z,1.58
2022-08-02T20:51:14.036Z,1.60
2022-08-02T20:53:55.078Z,1.60
2022-08-02T20:56:23.690Z,1.80
2022-08-02T20:58:52.283Z,1.70
2022-08-02T21:01:21.322Z,1.73
2022-08-02T21:03:58.438Z,1.58
2022-08-02T21:06:28.083Z,1.77
2022-08-02T21:08:56.106Z,1.90
2022-08-02T21:11:25.510Z,1.70
2022-08-02T21:14:05.759Z,1.80
2022-08-02T21:16:35.287Z,1.80
2022-08-02T21:19:02.384Z,2.00
2022-08-02T21:21:29.981Z,1.90
2022-08-02T21:23:57.695Z,2.30
2022-08-02T21:26:28.363Z,1.80
2022-08-02T21:28:58.188Z,1.80
2022-08-02T21:31:30.041Z,1.70
2022-08-02T21:34:01.025Z,1.62
2022-08-02T21:36:33.440Z,1.80
2022-08-02T21:39:09.303Z,1.73
2022-08-02T21:41:46.469Z,1.55
2022-08-02T21:44:18.960Z,1.77
2022-08-02T21:46:50.560Z,1.60
2022-08-02T21:49:20.130Z,1.50
2022-08-02T21:54:34.593Z,1.55
2022-08-02T21:57:01.729Z,1.52
2022-08-02T21:59:31.018Z,1.73
2022-08-02T22:01:59.902Z,1.58
2022-08-02T22:04:27.119Z,1.50
2022-08-02T22:06:55.363Z,1.70
2022-08-02T22:09:43.601Z,1.52
2022-08-02T22:12:16.637Z,1.70
2022-08-02T22:14:49.785Z,1.80
2022-08-02T22:17:51.192Z,1.65
2022-08-02T22:20:12.309Z,1.58
2022-08-02T22:22:39.934Z,1.70
2022-08-02T22:25:21.386Z,1.60
2022-08-02T22:28:35.860Z,1.87
2022-08-02T22:30:41.834Z,1.60
2022-08-02T22:33:33.356Z,1.60
2022-08-02T22:36:01.503Z,1.75
2022-08-02T22:38:28.888Z,1.83
2022-08-02T22:40:55.834Z,1.80
2022-08-02T22:43:23.563Z,1.55
2022-08-02T22:45:51.063Z,1.60
2022-08-02T22:48:17.988Z,1.80
2022-08-02T22:50:44.958Z,1.87
2022-08-02T22:53:12.425Z,1.48
2022-08-02T22:55:41.388Z,1.62
2022-08-02T22:58:08.991Z,1.75
2022-08-02T22:59:03.619Z,1.73
2022-08-02T23:00:36.165Z,1.80
2022-08-02T23:03:06.825Z,1.58
2022-08-02T23:05:34.117Z,1.70
2022-08-02T23:08:01.363Z,1.73
2022-08-02T23:10:28.322Z,1.65
2022-08-02T23:12:59.112Z,1.58
2022-08-02T23:15:26.696Z,1.60
2022-08-02T23:18:13.363Z,1.80
2022-08-02T23:20:40.968Z,1.62
2022-08-02T23:23:11.668Z,1.50
2022-08-02T23:25:39.034Z,1.70
2022-08-02T23:28:05.944Z,1.62
2022-08-02T23:30:32.903Z,1.70
2022-08-02T23:32:59.826Z,1.80
2022-08-02T23:35:29.221Z,1.67
2022-08-02T23:38:00.871Z,1.70
2022-08-02T23:40:38.764Z,1.85
2022-08-02T23:43:14.289Z,1.77
2022-08-02T23:45:45.971Z,1.80
2022-08-02T23:48:13.128Z,1.70
2022-08-02T23:50:40.061Z,1.70
2022-08-02T23:53:07.023Z,1.40
2022-08-02T23:55:33.999Z,1.70
2022-08-02T23:58:00.929Z,1.65
